Observation data for Reese Center on 02/23/2019      Previous  Date  Next       Current Mesonet Observations  Soil Data  Daily Summary Page  Observations in Plain Language
KREE 230600Z 12015KT 06/06 A297 RMK A01 T00640058  RH  098%=      5-min Rain = 0
KREE 230605Z 12013KT 06/06 A2969 RMK A01 T00640058  RH  098%=      5-min Rain = 0
KREE 230610Z 12016KT 06/06 A2969 RMK A01 T00640058  RH  098%=      5-min Rain = 0
KREE 230615Z 13016KT 06/06 A2969 RMK A01 T00630058  RH  098%=      5-min Rain = 0
KREE 230620Z 13015KT 06/06 A297 RMK A01 T00630058  RH  098%=      5-min Rain = 0
KREE 230625Z 13016KT 06/06 A297 RMK A01 T00630057  RH  098%=      5-min Rain = 0
KREE 230630Z 14016KT 06/06 A297 RMK A01 T00620057  RH  098%=      5-min Rain = 0
KREE 230635Z 14017G22KT 06/06 A297 RMK A01 T00630058  RH  098%=      5-min Rain = 0
KREE 230640Z 14019KT 06/06 A297 RMK A01 T00630058  RH  098%=      5-min Rain = 0
KREE 230645Z 14016KT 06/06 A297 RMK A01 T00630057  RH  098%=      5-min Rain = 0
KREE 230650Z 14017KT 06/06 A297 RMK A01 T00630058  RH  098%=      5-min Rain = 0
KREE 230655Z 14020KT 06/06 A2969 RMK A01 T00640058  RH  098%=      5-min Rain = 0
KREE 230700Z 13019KT 06/06 A2968 RMK A01 T00640058  RH  098%=      5-min Rain = 0
KREE 230705Z 14016G23KT 07/06 A2968 RMK A01 T00650059  RH  098%=      5-min Rain = 0
KREE 230710Z 14016G23KT 07/06 A2969 RMK A01 T00660060  RH  098%=      5-min Rain = 0
KREE 230715Z 15014KT 07/06 A2969 RMK A01 T00680063  RH  098%=      5-min Rain = 0
KREE 230720Z 15018G25KT 07/06 A2969 RMK A01 T00690063  RH  098%=      5-min Rain = 0
KREE 230725Z 17017G22KT 07/06 A297 RMK A01 T00680063  RH  098%=      5-min Rain = 0
KREE 230730Z 21014G19KT 07/06 A2972 RMK A01 T00680062  RH  098%=      5-min Rain = 0
KREE 230735Z 23016G21KT 07/06 A2973 RMK A01 T00690064  RH  098%=      5-min Rain = 0
KREE 230740Z 20015G21KT 07/07 A2972 RMK A01 T00740067  RH  097%=      5-min Rain = 0
KREE 230745Z 20014KT 07/06 A2971 RMK A01 T00730063  RH  095%=      5-min Rain = 0
KREE 230750Z 20012KT 07/06 A2971 RMK A01 T00720063  RH  095%=      5-min Rain = 0
KREE 230755Z 20013KT 07/06 A2971 RMK A01 T00720064  RH  096%=      5-min Rain = 0
KREE 230800Z 19012KT 07/06 A2972 RMK A01 T00720064  RH  096%=      5-min Rain = 0
KREE 230805Z 19012KT 07/07 A2972 RMK A01 T00730066  RH  097%=      5-min Rain = 0
KREE 230810Z 19011KT 07/07 A2971 RMK A01 T00740067  RH  097%=      5-min Rain = 0
KREE 230815Z 19012KT 07/07 A2971 RMK A01 T00740067  RH  097%=      5-min Rain = 0
KREE 230820Z 21012KT 07/07 A2972 RMK A01 T00740067  RH  097%=      5-min Rain = 0
KREE 230825Z 21013KT 08/07 A2972 RMK A01 T00760067  RH  096%=      5-min Rain = 0
KREE 230830Z 22014G19KT 08/07 A2971 RMK A01 T00790065  RH  093%=      5-min Rain = 0
KREE 230835Z 25018G24KT 08/06 A2972 RMK A01 T00800061  RH  089%=      5-min Rain = 0
KREE 230840Z 26020KT 08/05 A2973 RMK A01 T00780051  RH  084%=      5-min Rain = 0
KREE 230845Z 27018G25KT 07/04 A2973 RMK A01 T00710041  RH  082%=      5-min Rain = 0
KREE 230850Z 27015G21KT 07/04 A2973 RMK A01 T00670036  RH  082%=      5-min Rain = 0
KREE 230855Z 27013KT 06/04 A2973 RMK A01 T00640035  RH  083%=      5-min Rain = 0
KREE 230900Z 27014G20KT 06/03 A2973 RMK A01 T00630033  RH  082%=      5-min Rain = 0
KREE 230905Z 28013KT 06/03 A2973 RMK A01 T00620033  RH  083%=      5-min Rain = 0
KREE 230910Z 28012G17KT 06/03 A2972 RMK A01 T00610032  RH  083%=      5-min Rain = 0
KREE 230915Z 28009KT 06/03 A297 RMK A01 T00580031  RH  084%=      5-min Rain = 0
KREE 230920Z 26009KT 06/03 A297 RMK A01 T00560027  RH  082%=      5-min Rain = 0
KREE 230925Z 26009KT 05/03 A297 RMK A01 T00540027  RH  084%=      5-min Rain = 0
KREE 230930Z 26010KT 05/03 A2971 RMK A01 T00520027  RH  084%=      5-min Rain = 0
KREE 230935Z 26012KT 05/03 A2971 RMK A01 T00510025  RH  085%=      5-min Rain = 0
KREE 230940Z 24014G30KT 05/03 A2971 RMK A01 T00510025  RH  085%=      5-min Rain = 0
KREE 230945Z 24028G36KT 06/01 A2971 RMK A01 T00600013  RH  073%=      5-min Rain = 0
KREE 230950Z 24028G39KT 06/M00 A2972 RMK A01 T00551002  RH  067%=      5-min Rain = 0
KREE 230955Z 24027G36KT 05/M01 A2973 RMK A01 T00471012  RH  066%=      5-min Rain = 0
KREE 231000Z 24025G35KT 04/M02 A2973 RMK A01 T00431017  RH  066%=      5-min Rain = 0
KREE 231005Z 24026G36KT 04/M02 A2972 RMK A01 T00411021  RH  065%=      5-min Rain = 0
KREE 231010Z 24027G33KT 04/M02 A2972 RMK A01 T00391023  RH  065%=      5-min Rain = 0
KREE 231015Z 24025G35KT 04/M02 A2973 RMK A01 T00361021  RH  067%=      5-min Rain = 0
KREE 231020Z 24022G29KT 04/M02 A2973 RMK A01 T00351020  RH  068%=      5-min Rain = 0
KREE 231025Z 23022G29KT 03/M02 A2973 RMK A01 T00321022  RH  068%=      5-min Rain = 0
KREE 231030Z 24023G30KT 03/M02 A2973 RMK A01 T00301022  RH  070%=      5-min Rain = 0
KREE 231035Z 24024G30KT 03/M02 A2973 RMK A01 T00291023  RH  069%=      5-min Rain = 0
KREE 231040Z 25024G32KT 03/M02 A2973 RMK A01 T00291024  RH  069%=      5-min Rain = 0
KREE 231045Z 26025G30KT 03/M02 A2974 RMK A01 T00301024  RH  068%=      5-min Rain = 0
KREE 231050Z 26024G30KT 03/M02 A2974 RMK A01 T00301023  RH  069%=      5-min Rain = 0
KREE 231055Z 26026G33KT 03/M02 A2973 RMK A01 T00291020  RH  071%=      5-min Rain = 0
KREE 231100Z 26022G30KT 03/M02 A2974 RMK A01 T00271020  RH  072%=      5-min Rain = 0
KREE 231105Z 25021G28KT 03/M02 A2974 RMK A01 T00261022  RH  072%=      5-min Rain = 0
KREE 231110Z 25018G24KT 02/M02 A2973 RMK A01 T00231020  RH  074%=      5-min Rain = 0
KREE 231115Z 24019G25KT 02/M02 A2973 RMK A01 T00221019  RH  075%=      5-min Rain = 0
KREE 231120Z 24017G24KT 02/M02 A2973 RMK A01 T00211019  RH  075%=      5-min Rain = 0
KREE 231125Z 24016G21KT 02/M02 A2974 RMK A01 T00201019  RH  076%=      5-min Rain = 0
KREE 231130Z 24017G24KT 02/M02 A2974 RMK A01 T00181018  RH  078%=      5-min Rain = 0
KREE 231135Z 24019G25KT 02/M02 A2975 RMK A01 T00171018  RH  078%=      5-min Rain = 0
KREE 231140Z 24020G25KT 02/M02 A2975 RMK A01 T00171019  RH  078%=      5-min Rain = 0
KREE 231145Z 24020G27KT 02/M02 A2975 RMK A01 T00171020  RH  078%=      5-min Rain = 0
KREE 231150Z 24019G25KT 02/M02 A2975 RMK A01 T00161020  RH  078%=      5-min Rain = 0
KREE 231155Z 24019G26KT 02/M02 A2975 RMK A01 T00161020  RH  078%=      5-min Rain = 0
KREE 231200Z 24018G23KT 01/M02 A2975 RMK A01 T00141020  RH  079%=      5-min Rain = 0
KREE 231205Z 24017G23KT 01/M02 A2975 RMK A01 T00131019  RH  080%=      5-min Rain = 0
KREE 231210Z 24016G21KT 01/M02 A2975 RMK A01 T00131020  RH  080%=      5-min Rain = 0
KREE 231215Z 24018KT 01/M02 A2975 RMK A01 T00131020  RH  080%=      5-min Rain = 0
KREE 231220Z 23017G22KT 01/M02 A2975 RMK A01 T00131022  RH  078%=      5-min Rain = 0
KREE 231225Z 23018G24KT 02/M03 A2975 RMK A01 T00151028  RH  074%=      5-min Rain = 0
KREE 231230Z 23018G24KT 02/M03 A2975 RMK A01 T00151034  RH  071%=      5-min Rain = 0
KREE 231235Z 22019G24KT 02/M04 A2975 RMK A01 T00151037  RH  069%=      5-min Rain = 0
KREE 231240Z 22019G25KT 02/M04 A2974 RMK A01 T00151039  RH  068%=      5-min Rain = 0
KREE 231245Z 23019G25KT 02/M04 A2975 RMK A01 T00151040  RH  068%=      5-min Rain = 0
KREE 231250Z 23020G26KT 02/M04 A2975 RMK A01 T00151041  RH  067%=      5-min Rain = 0
KREE 231255Z 23019G26KT 02/M04 A2975 RMK A01 T00151041  RH  067%=      5-min Rain = 0
KREE 231300Z 23021G27KT 02/M04 A2975 RMK A01 T00151042  RH  067%=      5-min Rain = 0
KREE 231305Z 23020G26KT 01/M04 A2975 RMK A01 T00141042  RH  067%=      5-min Rain = 0
KREE 231310Z 23021G26KT 01/M04 A2975 RMK A01 T00131042  RH  068%=      5-min Rain = 0
KREE 231315Z 23017G22KT 01/M04 A2975 RMK A01 T00111042  RH  068%=      5-min Rain = 0
KREE 231320Z 22017G22KT 01/M04 A2975 RMK A01 T00091043  RH  069%=      5-min Rain = 0
KREE 231325Z 22018KT 01/M04 A2976 RMK A01 T00091043  RH  069%=      5-min Rain = 0
KREE 231330Z 22017KT 01/M04 A2976 RMK A01 T00081044  RH  069%=      5-min Rain = 0
KREE 231335Z 22017G22KT 01/M04 A2976 RMK A01 T00071044  RH  069%=      5-min Rain = 0
KREE 231340Z 22017G22KT 01/M04 A2976 RMK A01 T00071044  RH  069%=      5-min Rain = 0
KREE 231345Z 22017G22KT 01/M04 A2977 RMK A01 T00081044  RH  069%=      5-min Rain = 0
KREE 231350Z 22019G24KT 01/M04 A2976 RMK A01 T00091044  RH  068%=      5-min Rain = 0
KREE 231355Z 23019G25KT 01/M05 A2976 RMK A01 T00091045  RH  068%=      5-min Rain = 0
KREE 231400Z 22021G28KT 01/M05 A2976 RMK A01 T00101045  RH  067%=      5-min Rain = 0
KREE 231405Z 22022KT 01/M05 A2976 RMK A01 T00121046  RH  066%=      5-min Rain = 0
KREE 231410Z 22021KT 01/M05 A2976 RMK A01 T00141047  RH  065%=      5-min Rain = 0
KREE 231415Z 22021G26KT 02/M05 A2976 RMK A01 T00161048  RH  063%=      5-min Rain = 0
KREE 231420Z 22022G27KT 02/M05 A2976 RMK A01 T00171048  RH  062%=      5-min Rain = 0
KREE 231425Z 22023KT 02/M05 A2976 RMK A01 T00191048  RH  062%=      5-min Rain = 0
KREE 231430Z 22021G27KT 02/M05 A2976 RMK A01 T00211047  RH  062%=      5-min Rain = 0
KREE 231435Z 22020G26KT 02/M05 A2977 RMK A01 T00231045  RH  061%=      5-min Rain = 0
KREE 231440Z 23019G24KT 03/M05 A2977 RMK A01 T00251045  RH  061%=      5-min Rain = 0
KREE 231445Z 24021G28KT 03/M05 A2977 RMK A01 T00301047  RH  057%=      5-min Rain = 0
KREE 231450Z 24025G31KT 04/M05 A2977 RMK A01 T00351052  RH  053%=      5-min Rain = 0
KREE 231455Z 24021G31KT 04/M05 A2977 RMK A01 T00381050  RH  053%=      5-min Rain = 0
KREE 231500Z 24024G32KT 04/M05 A2977 RMK A01 T00411053  RH  051%=      5-min Rain = 0
KREE 231505Z 24025G32KT 04/M05 A2977 RMK A01 T00421054  RH  050%=      5-min Rain = 0
KREE 231510Z 24025G34KT 05/M05 A2978 RMK A01 T00451054  RH  049%=      5-min Rain = 0
KREE 231515Z 24024G32KT 05/M05 A2978 RMK A01 T00481053  RH  048%=      5-min Rain = 0
KREE 231520Z 25027G36KT 05/M06 A2978 RMK A01 T00491056  RH  047%=      5-min Rain = 0
KREE 231525Z 25029G37KT 05/M06 A2978 RMK A01 T00501057  RH  046%=      5-min Rain = 0
KREE 231530Z 25030G43KT 05/M06 A2977 RMK A01 T00511059  RH  045%=      5-min Rain = 0
KREE 231535Z 26032G48KT 06/M06 A2977 RMK A01 T00551060  RH  044%=      5-min Rain = 0
KREE 231540Z 26033G46KT 06/M06 A2977 RMK A01 T00581063  RH  042%=      5-min Rain = 0
KREE 231545Z 26033G49KT 06/M06 A2977 RMK A01 T00591063  RH  042%=      5-min Rain = 0
KREE 231550Z 26036G44KT 06/M06 A2977 RMK A01 T00601064  RH  041%=      5-min Rain = 0
KREE 231555Z 26034G46KT 06/M06 A2977 RMK A01 T00631062  RH  041%=      5-min Rain = 0
KREE 231600Z 26035G45KT 06/M06 A2977 RMK A01 T00641063  RH  040%=      5-min Rain = 0
KREE 231605Z 27034G46KT 07/M06 A2977 RMK A01 T00651063  RH  040%=      5-min Rain = 0
KREE 231610Z 27033G43KT 07/M06 A2977 RMK A01 T00671062  RH  040%=      5-min Rain = 0
KREE 231615Z 27036G48KT 07/M06 A2977 RMK A01 T00681064  RH  039%=      5-min Rain = 0
KREE 231620Z 27038G45KT 07/M07 A2977 RMK A01 T00691065  RH  038%=      5-min Rain = 0
KREE 231625Z 27037G47KT 07/M06 A2978 RMK A01 T00711063  RH  038%=      5-min Rain = 0
KREE 231630Z 27038G51KT 07/M07 A2978 RMK A01 T00721065  RH  038%=      5-min Rain = 0
KREE 231635Z 27037G45KT 07/M06 A2979 RMK A01 T00721064  RH  038%=      5-min Rain = 0
KREE 231640Z 27040G48KT 07/M07 A2979 RMK A01 T00711066  RH  037%=      5-min Rain = 0
KREE 231645Z 27035G44KT 08/M06 A2979 RMK A01 T00761062  RH  037%=      5-min Rain = 0
KREE 231650Z 28037G45KT 08/M06 A298 RMK A01 T00761061  RH  038%=      5-min Rain = 0
KREE 231655Z 28037G45KT 08/M06 A298 RMK A01 T00771063  RH  037%=      5-min Rain = 0
KREE 231700Z 28035G44KT 08/M06 A2981 RMK A01 T00791061  RH  037%=      5-min Rain = 0
KREE 231705Z 28034G47KT 08/M06 A2981 RMK A01 T00811061  RH  036%=      5-min Rain = 0
KREE 231710Z 27038G47KT 08/M06 A2981 RMK A01 T00811061  RH  036%=      5-min Rain = 0
KREE 231715Z 28035G49KT 08/M06 A2982 RMK A01 T00831061  RH  036%=      5-min Rain = 0
KREE 231720Z 28034G43KT 08/M06 A2983 RMK A01 T00841060  RH  036%=      5-min Rain = 0
KREE 231725Z 28031G39KT 09/M06 A2984 RMK A01 T00881056  RH  036%=      5-min Rain = 0
KREE 231730Z 28033G44KT 09/M06 A2984 RMK A01 T00891058  RH  035%=      5-min Rain = 0
KREE 231735Z 28035G46KT 09/M06 A2984 RMK A01 T00891058  RH  035%=      5-min Rain = 0
KREE 231740Z 28031G43KT 09/M06 A2985 RMK A01 T00911055  RH  036%=      5-min Rain = 0
KREE 231745Z 28032G44KT 09/M06 A2985 RMK A01 T00921056  RH  035%=      5-min Rain = 0
KREE 231750Z 28034G46KT 09/M06 A2985 RMK A01 T00941059  RH  034%=      5-min Rain = 0
KREE 231755Z 28034G41KT 09/M06 A2985 RMK A01 T00921063  RH  033%=      5-min Rain = 0
KREE 231800Z 27033G39KT 09/M06 A2985 RMK A01 T00941061  RH  033%=      5-min Rain = 0
KREE 231805Z 28032G43KT 10/M06 A2985 RMK A01 T00971058  RH  033%=      5-min Rain = 0
KREE 231810Z 28029G38KT 10/M06 A2985 RMK A01 T00991055  RH  034%=      5-min Rain = 0
KREE 231815Z 28032G43KT 10/M06 A2985 RMK A01 T01001057  RH  033%=      5-min Rain = 0
KREE 231820Z 28029G38KT 10/M06 A2986 RMK A01 T01031057  RH  032%=      5-min Rain = 0
KREE 231825Z 28029G36KT 11/M06 A2986 RMK A01 T01051057  RH  032%=      5-min Rain = 0
KREE 231830Z 28030G39KT 10/M06 A2986 RMK A01 T01041058  RH  032%=      5-min Rain = 0
KREE 231835Z 28030G41KT 11/M06 A2986 RMK A01 T01061057  RH  032%=      5-min Rain = 0
KREE 231840Z 28030G37KT 11/M06 A2986 RMK A01 T01061055  RH  032%=      5-min Rain = 0
KREE 231845Z 28029G36KT 11/M06 A2986 RMK A01 T01051056  RH  032%=      5-min Rain = 0
KREE 231850Z 29031G42KT 11/M05 A2986 RMK A01 T01111054  RH  031%=      5-min Rain = 0
KREE 231855Z 28030G42KT 11/M05 A2986 RMK A01 T01091054  RH  032%=      5-min Rain = 0
KREE 231900Z 29029G39KT 11/M05 A2986 RMK A01 T01141051  RH  031%=      5-min Rain = 0
KREE 231905Z 30029G36KT 12/M05 A2987 RMK A01 T01161051  RH  031%=      5-min Rain = 0
KREE 231910Z 30029G37KT 12/M05 A2987 RMK A01 T01211047  RH  031%=      5-min Rain = 0
KREE 231915Z 29028G37KT 12/M05 A2987 RMK A01 T01191046  RH  032%=      5-min Rain = 0
KREE 231920Z 30030G38KT 12/M04 A2987 RMK A01 T01161044  RH  033%=      5-min Rain = 0
KREE 231925Z 31025G33KT 11/M04 A2987 RMK A01 T01111043  RH  034%=      5-min Rain = 0
KREE 231930Z 30027G38KT 11/M04 A2987 RMK A01 T01111039  RH  035%=      5-min Rain = 0
KREE 231935Z 30026G32KT 11/M04 A2988 RMK A01 T01141035  RH  036%=      5-min Rain = 0
KREE 231940Z 30023G28KT 11/M03 A2988 RMK A01 T01131032  RH  036%=      5-min Rain = 0
KREE 231945Z 30024G30KT 12/M03 A2988 RMK A01 T01181030  RH  036%=      5-min Rain = 0
KREE 231950Z 31023KT 12/M03 A2988 RMK A01 T01191031  RH  035%=      5-min Rain = 0
KREE 231955Z 31025G32KT 12/M03 A2988 RMK A01 T01191034  RH  035%=      5-min Rain = 0
KREE 232000Z 31026G35KT 11/M04 A2989 RMK A01 T01141035  RH  035%=      5-min Rain = 0
KREE 232005Z 30027G38KT 12/M04 A2989 RMK A01 T01161042  RH  033%=      5-min Rain = 0
KREE 232010Z 31030G36KT 12/M05 A2989 RMK A01 T01181051  RH  031%=      5-min Rain = 0
KREE 232015Z 32027G34KT 12/M05 A2989 RMK A01 T01181049  RH  031%=      5-min Rain = 0
KREE 232020Z 31026G34KT 12/M05 A2989 RMK A01 T01201047  RH  031%=      5-min Rain = 0
KREE 232025Z 31028G38KT 12/M06 A2989 RMK A01 T01221057  RH  028%=      5-min Rain = 0
KREE 232030Z 30032G40KT 12/M06 A2989 RMK A01 T01191059  RH  028%=      5-min Rain = 0
KREE 232035Z 32026G32KT 12/M06 A299 RMK A01 T01211056  RH  029%=      5-min Rain = 0
KREE 232040Z 31028G37KT 12/M06 A299 RMK A01 T01221059  RH  028%=      5-min Rain = 0
KREE 232045Z 31026G32KT 12/M06 A2991 RMK A01 T01211056  RH  029%=      5-min Rain = 0
KREE 232050Z 32027G34KT 12/M06 A2991 RMK A01 T01191055  RH  029%=      5-min Rain = 0
KREE 232055Z 32027G37KT 12/M05 A2991 RMK A01 T01181054  RH  030%=      5-min Rain = 0
KREE 232100Z 31023G29KT 12/M05 A2992 RMK A01 T01221052  RH  030%=      5-min Rain = 0
KREE 232105Z 31027G40KT 12/M05 A2992 RMK A01 T01211052  RH  030%=      5-min Rain = 0
KREE 232110Z 31025G36KT 12/M05 A2993 RMK A01 T01201052  RH  030%=      5-min Rain = 0
KREE 232115Z 31025G34KT 12/M06 A2993 RMK A01 T01211056  RH  029%=      5-min Rain = 0
KREE 232120Z 31025G32KT 12/M06 A2993 RMK A01 T01221056  RH  029%=      5-min Rain = 0
KREE 232125Z 32025G31KT 12/M06 A2994 RMK A01 T01221056  RH  029%=      5-min Rain = 0
KREE 232130Z 31025G32KT 12/M06 A2994 RMK A01 T01201056  RH  029%=      5-min Rain = 0
KREE 232135Z 31025G33KT 12/M06 A2994 RMK A01 T01201059  RH  028%=      5-min Rain = 0
KREE 232140Z 31024G33KT 12/M06 A2994 RMK A01 T01191057  RH  029%=      5-min Rain = 0
KREE 232145Z 32025G32KT 12/M06 A2994 RMK A01 T01211055  RH  029%=      5-min Rain = 0
KREE 232150Z 31025G33KT 12/M06 A2995 RMK A01 T01181055  RH  030%=      5-min Rain = 0
KREE 232155Z 32025G30KT 12/M05 A2995 RMK A01 T01191053  RH  030%=      5-min Rain = 0
KREE 232200Z 32022G28KT 12/M05 A2996 RMK A01 T01201051  RH  030%=      5-min Rain = 0
KREE 232205Z 31021G28KT 12/M05 A2996 RMK A01 T01191052  RH  030%=      5-min Rain = 0
KREE 232210Z 32022G27KT 12/M05 A2996 RMK A01 T01191051  RH  030%=      5-min Rain = 0
KREE 232215Z 33022G28KT 12/M05 A2997 RMK A01 T01191050  RH  031%=      5-min Rain = 0
KREE 232220Z 32022G30KT 12/M05 A2997 RMK A01 T01191050  RH  031%=      5-min Rain = 0
KREE 232225Z 32022G29KT 12/M05 A2998 RMK A01 T01171051  RH  031%=      5-min Rain = 0
KREE 232230Z 32020G27KT 12/M05 A2998 RMK A01 T01181049  RH  031%=      5-min Rain = 0
KREE 232235Z 32021G27KT 12/M05 A2998 RMK A01 T01181050  RH  031%=      5-min Rain = 0
KREE 232240Z 33020G25KT 12/M05 A2998 RMK A01 T01181047  RH  032%=      5-min Rain = 0
KREE 232245Z 33019G24KT 11/M05 A2998 RMK A01 T01141046  RH  033%=      5-min Rain = 0
KREE 232250Z 33019G25KT 12/M05 A2998 RMK A01 T01151047  RH  032%=      5-min Rain = 0
KREE 232255Z 34019G25KT 12/M05 A2998 RMK A01 T01161046  RH  032%=      5-min Rain = 0
KREE 232300Z 33019G25KT 11/M05 A2998 RMK A01 T01131046  RH  033%=      5-min Rain = 0
KREE 232305Z 33018KT 11/M04 A2999 RMK A01 T01141044  RH  033%=      5-min Rain = 0
KREE 232310Z 33018KT 11/M05 A2999 RMK A01 T01121045  RH  033%=      5-min Rain = 0
KREE 232315Z 33019G24KT 11/M05 A2999 RMK A01 T01111045  RH  034%=      5-min Rain = 0
KREE 232320Z 34017KT 11/M04 A2999 RMK A01 T01101044  RH  034%=      5-min Rain = 0
KREE 232325Z 34018KT 11/M04 A2999 RMK A01 T01101044  RH  034%=      5-min Rain = 0
KREE 232330Z 34017KT 11/M04 A2999 RMK A01 T01091044  RH  034%=      5-min Rain = 0
KREE 232335Z 34016KT 11/M04 A30 RMK A01 T01081043  RH  035%=      5-min Rain = 0
KREE 232340Z 35017KT 11/M05 A30 RMK A01 T01071045  RH  035%=      5-min Rain = 0
KREE 232345Z 34016KT 11/M05 A30 RMK A01 T01051045  RH  035%=      5-min Rain = 0
KREE 232350Z 35016KT 10/M05 A30 RMK A01 T01041045  RH  035%=      5-min Rain = 0
KREE 232355Z 35015KT 10/M05 A30 RMK A01 T01041046  RH  035%=      5-min Rain = 0
KREE 240000Z 35013KT 10/M05 A30 RMK A01 T01031045  RH  035%=      5-min Rain = 0
KREE 240005Z 36012KT 10/M05 A30 RMK A01 T01011045  RH  036%=      5-min Rain = 0
KREE 240010Z 36012G17KT 10/M05 A30 RMK A01 T00991045  RH  036%=      5-min Rain = 0
KREE 240015Z 00013KT 10/M05 A30 RMK A01 T00951046  RH  037%=      5-min Rain = 0
KREE 240020Z 36013KT 09/M05 A3001 RMK A01 T00921047  RH  037%=      5-min Rain = 0
KREE 240025Z 00013KT 09/M05 A3001 RMK A01 T00891049  RH  038%=      5-min Rain = 0
KREE 240030Z 00010KT 09/M05 A3001 RMK A01 T00851049  RH  039%=      5-min Rain = 0
KREE 240035Z 00010KT 08/M05 A3001 RMK A01 T00821050  RH  039%=      5-min Rain = 0
KREE 240040Z 00010KT 08/M05 A3002 RMK A01 T00791050  RH  040%=      5-min Rain = 0
KREE 240045Z 00009KT 08/M05 A3002 RMK A01 T00751050  RH  041%=      5-min Rain = 0
KREE 240050Z 01008KT 07/M05 A3003 RMK A01 T00711050  RH  042%=      5-min Rain = 0
KREE 240055Z 02008KT 07/M05 A3003 RMK A01 T00671050  RH  044%=      5-min Rain = 0
KREE 240100Z 02007KT 06/M05 A3003 RMK A01 T00621050  RH  045%=      5-min Rain = 0
KREE 240105Z 03007KT 06/M05 A3003 RMK A01 T00591050  RH  046%=      5-min Rain = 0
KREE 240110Z 04006KT 06/M05 A3004 RMK A01 T00591049  RH  046%=      5-min Rain = 0
KREE 240115Z 04005KT 06/M05 A3004 RMK A01 T00561053  RH  046%=      5-min Rain = 0
KREE 240120Z 05005KT 05/M06 A3004 RMK A01 T00461056  RH  048%=      5-min Rain = 0
KREE 240125Z 06004KT 04/M05 A3005 RMK A01 T00431053  RH  050%=      5-min Rain = 0
KREE 240130Z 06004KT 04/M05 A3005 RMK A01 T00421052  RH  051%=      5-min Rain = 0
KREE 240135Z 06004KT 04/M05 A3006 RMK A01 T00431051  RH  051%=      5-min Rain = 0
KREE 240140Z 05004KT 05/M05 A3006 RMK A01 T00471047  RH  051%=      5-min Rain = 0
KREE 240145Z 05005KT 05/M04 A3006 RMK A01 T00531044  RH  050%=      5-min Rain = 0
KREE 240150Z 05005KT 06/M04 A3007 RMK A01 T00571044  RH  049%=      5-min Rain = 0
KREE 240155Z 05004KT 05/M05 A3007 RMK A01 T00541046  RH  049%=      5-min Rain = 0
KREE 240200Z 06004KT 05/M05 A3008 RMK A01 T00471049  RH  051%=      5-min Rain = 0
KREE 240205Z 06004KT 04/M05 A3008 RMK A01 T00431048  RH  052%=      5-min Rain = 0
KREE 240210Z 07004KT 04/M05 A3009 RMK A01 T00391049  RH  053%=      5-min Rain = 0
KREE 240215Z 07004KT 04/M05 A3009 RMK A01 T00371048  RH  054%=      5-min Rain = 0
KREE 240220Z 06004KT 04/M05 A301 RMK A01 T00371046  RH  055%=      5-min Rain = 0
KREE 240225Z 05004KT 04/M04 A301 RMK A01 T00441042  RH  054%=      5-min Rain = 0
KREE 240230Z 05003KT 05/M04 A3011 RMK A01 T00491041  RH  053%=      5-min Rain = 0
KREE 240235Z 05003KT 05/M04 A3011 RMK A01 T00501042  RH  052%=      5-min Rain = 0
KREE 240240Z 06003KT 05/M04 A3011 RMK A01 T00481043  RH  052%=      5-min Rain = 0
KREE 240245Z 07004KT 04/M05 A3012 RMK A01 T00421046  RH  053%=      5-min Rain = 0
KREE 240250Z 09004KT 03/M05 A3012 RMK A01 T00341052  RH  054%=      5-min Rain = 0
KREE 240255Z 09003KT 02/M06 A3012 RMK A01 T00241055  RH  056%=      5-min Rain = 0
KREE 240300Z 07003KT 02/M05 A3013 RMK A01 T00231052  RH  058%=      5-min Rain = 0
KREE 240305Z 06003KT 03/M05 A3013 RMK A01 T00261048  RH  059%=      5-min Rain = 0
KREE 240310Z 08004KT 03/M05 A3013 RMK A01 T00311049  RH  057%=      5-min Rain = 0
KREE 240315Z 08005KT 03/M05 A3014 RMK A01 T00271051  RH  057%=      5-min Rain = 0
KREE 240320Z 07006KT 02/M05 A3014 RMK A01 T00211053  RH  058%=      5-min Rain = 0
KREE 240325Z 08004KT 02/M05 A3014 RMK A01 T00191052  RH  060%=      5-min Rain = 0
KREE 240330Z 07004KT 03/M05 A3014 RMK A01 T00261046  RH  060%=      5-min Rain = 0
KREE 240335Z 07004KT 03/M05 A3014 RMK A01 T00331045  RH  057%=      5-min Rain = 0
KREE 240340Z 07005KT 03/M05 A3015 RMK A01 T00321046  RH  057%=      5-min Rain = 0
KREE 240345Z 07005KT 03/M05 A3015 RMK A01 T00271049  RH  058%=      5-min Rain = 0
KREE 240350Z 07006KT 03/M05 A3015 RMK A01 T00251048  RH  059%=      5-min Rain = 0
KREE 240355Z 07006KT 03/M05 A3015 RMK A01 T00251048  RH  059%=      5-min Rain = 0
KREE 240400Z 06006KT 02/M05 A3015 RMK A01 T00231050  RH  059%=      5-min Rain = 0
KREE 240405Z 06006KT 02/M05 A3016 RMK A01 T00201053  RH  059%=      5-min Rain = 0
KREE 240410Z 06005KT 02/M05 A3016 RMK A01 T00181050  RH  062%=      5-min Rain = 0
KREE 240415Z 05005KT 01/M06 A3016 RMK A01 T00141058  RH  060%=      5-min Rain = 0
KREE 240420Z 05004KT 01/M06 A3017 RMK A01 T00051060  RH  063%=      5-min Rain = 0
KREE 240425Z 04004KT 00/M06 A3017 RMK A01 T00021059  RH  064%=      5-min Rain = 0
KREE 240430Z 05003KT 00/M06 A3017 RMK A01 T00011058  RH  065%=      5-min Rain = 0
KREE 240435Z 05002KT 00/06 A3018 RMK A01 T00-00-60  RH  065%=      5-min Rain = 0
KREE 240440Z 05003KT M00/M06 A3018 RMK A01 T10031063  RH  065%=      5-min Rain = 0
KREE 240445Z 04001KT M01/M07 A3019 RMK A01 T10091067  RH  065%=      5-min Rain = 0
KREE 240450Z 28000KT M02/M07 A3019 RMK A01 T10171072  RH  067%=      5-min Rain = 0
KREE 240455Z 06001KT M01/M06 A3019 RMK A01 T10101061  RH  069%=      5-min Rain = 0
KREE 240500Z 05002KT M00/M06 A3019 RMK A01 T10041062  RH  065%=      5-min Rain = 0
KREE 240505Z 01002KT 00/06 A3019 RMK A01 T00000-64  RH  063%=      5-min Rain = 0
KREE 240510Z 34002KT M02/M08 A302 RMK A01 T10171076  RH  065%=      5-min Rain = 0
KREE 240515Z 05002KT M02/M07 A302 RMK A01 T10151065  RH  069%=      5-min Rain = 0
KREE 240520Z 04002KT M01/M06 A302 RMK A01 T10081062  RH  068%=      5-min Rain = 0
KREE 240525Z 35002KT M01/M07 A302 RMK A01 T10141068  RH  067%=      5-min Rain = 0
KREE 240530Z 01002KT M02/M07 A302 RMK A01 T10161066  RH  069%=      5-min Rain = 0
KREE 240535Z 32002KT M02/M07 A3021 RMK A01 T10181070  RH  068%=      5-min Rain = 0
KREE 240540Z 34002KT M03/M08 A3021 RMK A01 T10261075  RH  070%=      5-min Rain = 0
KREE 240545Z 33002KT M03/M08 A3021 RMK A01 T10281075  RH  071%=      5-min Rain = 0
KREE 240550Z 34002KT M03/M07 A3021 RMK A01 T10281074  RH  072%=      5-min Rain = 0
KREE 240555Z 32002KT M03/M08 A3021 RMK A01 T10311077  RH  071%=      5-min Rain = 0

Page generated in 0.0188 seconds.